Time;durP1;ratioP1;P1;durP2;ratioP2;P2;SDS_P1;SDS_P2;PMS_P1;PMS_P2;Temp;Humidity;BMP_temperature;BMP_pressure;BME280_temperature;BME280_humidity;BME280_pressure;Samples;Min_cycle;Max_cycle;Signal;HPM_P1;HPM_P2
2023/10/08 00:01:35;;;;;;;1.48;0.30;;;14.30;99.90;;;;;;6244872;22;20383;-92
2023/10/08 00:04:04;;;;;;;3.30;0.20;;;14.50;99.90;;;;;;6244447;22;20368;-91
2023/10/08 00:06:30;;;;;;;2.40;0.20;;;14.80;99.90;;;;;;6243390;22;20510;-89
2023/10/08 00:08:59;;;;;;;2.30;0.20;;;14.60;99.90;;;;;;6245287;22;20392;-90
2023/10/08 00:11:28;;;;;;;1.75;0.30;;;14.60;99.90;;;;;;6242750;22;20370;-90
2023/10/08 00:13:56;;;;;;;1.02;0.20;;;14.50;99.90;;;;;;6270568;22;20446;-89
2023/10/08 00:16:22;;;;;;;2.17;0.20;;;14.40;99.90;;;;;;6268360;22;20364;-90
2023/10/08 00:18:51;;;;;;;1.50;0.15;;;14.30;99.90;;;;;;6244446;22;20356;-90
2023/10/08 00:21:19;;;;;;;1.52;0.20;;;14.30;99.90;;;;;;6243618;22;21085;-89
2023/10/08 00:23:52;;;;;;;2.95;0.30;;;14.20;99.90;;;;;;6243303;22;20372;-91
2023/10/08 00:26:27;;;;;;;2.25;0.20;;;14.20;99.90;;;;;;6244319;22;20418;-91
2023/10/08 00:28:54;;;;;;;3.13;0.20;;;14.20;99.90;;;;;;6268415;22;20365;-90
2023/10/08 00:31:23;;;;;;;1.98;0.20;;;14.20;99.90;;;;;;6244901;22;20452;-90
2023/10/08 00:33:49;;;;;;;3.13;0.20;;;14.20;99.90;;;;;;6268204;22;20391;-89
2023/10/08 00:36:18;;;;;;;2.00;0.20;;;14.20;99.90;;;;;;6270106;22;20459;-90
2023/10/08 00:38:45;;;;;;;3.97;0.20;;;14.30;99.90;;;;;;6269383;22;20714;-90
2023/10/08 00:41:21;;;;;;;2.00;0.30;;;14.20;99.90;;;;;;6268897;22;21029;-90
2023/10/08 00:43:48;;;;;;;2.33;0.30;;;14.30;99.90;;;;;;6270233;22;20373;-91
2023/10/08 00:51:48;;;;;;;2.35;0.10;;;14.30;99.90;;;;;;6269962;22;20698;-91
2023/10/08 00:54:17;;;;;;;2.40;0.20;;;14.30;99.90;;;;;;6268904;22;20426;-90
2023/10/08 00:59:20;;;;;;;1.88;0.20;;;14.40;99.90;;;;;;6267890;22;20833;-91
2023/10/08 01:02:14;;;;;;;1.60;0.10;;;14.30;99.90;;;;;;6269829;22;20375;-90
2023/10/08 01:04:34;;;;;;;2.60;0.30;;;14.30;99.90;;;;;;6268539;22;20372;-90
2023/10/08 01:07:15;;;;;;;2.03;0.20;;;14.30;99.90;;;;;;6268776;22;20392;-91
2023/10/08 01:09:50;;;;;;;3.63;0.30;;;14.20;99.90;;;;;;6270076;22;20365;-91
2023/10/08 01:14:53;;;;;;;3.67;0.30;;;14.20;99.90;;;;;;6268930;22;20381;-90
2023/10/08 01:17:24;;;;;;;3.35;0.20;;;14.20;99.90;;;;;;6267965;22;20367;-89
2023/10/08 01:20:32;;;;;;;2.90;0.20;;;14.20;99.90;;;;;;6268368;22;20494;-90
2023/10/08 01:22:38;;;;;;;2.38;0.22;;;14.20;99.90;;;;;;6268634;22;20376;-89
2023/10/08 01:25:05;;;;;;;2.53;0.40;;;14.20;99.90;;;;;;6267055;22;20368;-90
2023/10/08 01:27:34;;;;;;;1.80;0.30;;;14.30;99.90;;;;;;6268898;22;20396;-90
2023/10/08 01:30:17;;;;;;;1.40;0.28;;;14.30;99.90;;;;;;6267278;22;20367;-90
2023/10/08 01:32:44;;;;;;;3.95;0.50;;;14.10;99.90;;;;;;6268406;22;20829;-90
2023/10/08 01:35:26;;;;;;;2.67;0.47;;;14.10;99.90;;;;;;6243820;22;20756;-90
2023/10/08 01:37:56;;;;;;;3.38;0.40;;;14.10;99.90;;;;;;6267203;22;20386;-90
2023/10/08 01:40:22;;;;;;;2.40;0.32;;;14.10;99.90;;;;;;6269168;22;20433;-90
2023/10/08 01:42:51;;;;;;;2.28;0.30;;;14.10;99.90;;;;;;6242198;22;20368;-90
2023/10/08 01:45:18;;;;;;;2.83;0.30;;;14.20;99.90;;;;;;6269219;22;20372;-90
2023/10/08 01:47:44;;;;;;;2.50;0.30;;;14.10;99.90;;;;;;6242707;22;20434;-90
2023/10/08 01:50:21;;;;;;;1.65;0.30;;;14.10;99.90;;;;;;6241978;22;20754;-90
2023/10/08 01:52:51;;;;;;;1.20;0.20;;;14.10;99.90;;;;;;6243833;22;20364;-90
2023/10/08 01:55:18;;;;;;;2.95;0.30;;;14.50;99.90;;;;;;6267680;22;20368;-90
2023/10/08 01:57:44;;;;;;;1.42;0.30;;;14.10;99.90;;;;;;6268735;22;20361;-90
2023/10/08 02:00:11;;;;;;;3.05;0.30;;;13.90;99.90;;;;;;6240446;22;20860;-90
2023/10/08 02:02:40;;;;;;;4.00;0.30;;;14.00;99.90;;;;;;6242845;22;20404;-90
2023/10/08 02:05:06;;;;;;;2.30;0.30;;;14.20;99.90;;;;;;6241858;22;20364;-90
2023/10/08 02:07:33;;;;;;;2.17;0.30;;;14.10;99.90;;;;;;6241234;22;20392;-89
2023/10/08 02:09:59;;;;;;;2.55;0.20;;;14.50;99.90;;;;;;6242950;22;20365;-90
2023/10/08 02:12:25;;;;;;;2.40;0.20;;;14.10;99.90;;;;;;6241223;22;20443;-90
2023/10/08 02:14:51;;;;;;;1.10;0.20;;;14.30;99.90;;;;;;6243359;22;20912;-89
2023/10/08 02:17:17;;;;;;;1.47;0.40;;;14.00;99.90;;;;;;6266912;22;20396;-90
2023/10/08 02:19:43;;;;;;;5.55;0.90;;;13.80;99.90;;;;;;6268815;22;20422;-90
2023/10/08 02:22:11;;;;;;;1.90;0.30;;;14.40;99.90;;;;;;6241702;22;20856;-90
2023/10/08 02:24:37;;;;;;;1.50;0.28;;;13.60;99.90;;;;;;6242650;22;20376;-90
2023/10/08 02:27:03;;;;;;;2.22;0.30;;;14.00;99.90;;;;;;6268336;22;20435;-90
2023/10/08 02:29:30;;;;;;;4.10;0.28;;;14.20;99.90;;;;;;6267021;22;20807;-91
2023/10/08 02:31:57;;;;;;;2.17;0.20;;;14.40;99.90;;;;;;6269166;22;20439;-91
2023/10/08 02:34:23;;;;;;;2.17;0.40;;;14.10;99.90;;;;;;6241320;22;20414;-91
2023/10/08 02:36:49;;;;;;;2.50;0.28;;;14.00;99.90;;;;;;6243503;22;20372;-91
2023/10/08 02:39:36;;;;;;;1.70;0.22;;;14.10;99.90;;;;;;6266806;22;20487;-90
2023/10/08 02:42:01;;;;;;;3.67;0.30;;;13.90;99.90;;;;;;6266921;22;20736;-90
2023/10/08 02:44:27;;;;;;;2.55;0.30;;;13.90;99.90;;;;;;6243242;22;20400;-90
2023/10/08 02:46:53;;;;;;;2.85;0.40;;;14.00;99.90;;;;;;6267091;22;20410;-89
2023/10/08 02:49:24;;;;;;;5.70;2.00;;;13.90;99.90;;;;;;6243236;22;20844;-90
2023/10/08 02:51:53;;;;;;;4.28;1.40;;;14.00;99.90;;;;;;6241408;22;20694;-88
2023/10/08 02:54:32;;;;;;;3.40;1.42;;;14.00;99.90;;;;;;6268632;22;20452;-90
2023/10/08 02:57:03;;;;;;;6.28;2.47;;;14.00;99.90;;;;;;6242539;22;20364;-90
2023/10/08 02:59:44;;;;;;;5.85;2.55;;;14.00;99.90;;;;;;6241942;22;20373;-90
2023/10/08 03:02:18;;;;;;;4.00;1.77;;;14.00;99.90;;;;;;6269975;22;20389;-90
2023/10/08 03:04:45;;;;;;;3.95;1.05;;;14.00;99.90;;;;;;6268478;22;20364;-89
2023/10/08 03:07:21;;;;;;;5.00;1.00;;;14.00;99.90;;;;;;6245302;22;20394;-90
2023/10/08 03:09:50;;;;;;;4.40;0.88;;;14.00;99.90;;;;;;6243693;22;20845;-91
2023/10/08 03:12:17;;;;;;;3.92;1.30;;;14.50;99.90;;;;;;6270508;22;20459;-89
2023/10/08 03:15:14;;;;;;;4.77;0.97;;;14.00;99.90;;;;;;6270866;22;20360;-90
2023/10/08 03:17:29;;;;;;;5.82;1.58;;;14.20;99.90;;;;;;6267842;22;20694;-91
2023/10/08 03:20:27;;;;;;;3.30;0.80;;;14.00;99.90;;;;;;6270464;22;20372;-90
2023/10/08 03:22:45;;;;;;;2.80;0.70;;;13.90;99.90;;;;;;6267929;22;20471;-90
2023/10/08 03:25:20;;;;;;;2.55;0.70;;;13.90;99.90;;;;;;6243221;22;20384;-88
2023/10/08 03:27:45;;;;;;;2.60;0.75;;;13.90;99.90;;;;;;6269603;22;20402;-89
2023/10/08 03:30:15;;;;;;;2.58;0.68;;;13.90;99.90;;;;;;6243196;22;20407;-89
2023/10/08 03:32:44;;;;;;;3.78;0.68;;;13.80;99.90;;;;;;6244903;22;20435;-90
2023/10/08 03:35:13;;;;;;;9.53;0.90;;;13.80;99.90;;;;;;6268081;22;20372;-90
2023/10/08 03:37:45;;;;;;;3.75;1.20;;;14.00;99.90;;;;;;6244819;22;20368;-90
2023/10/08 03:42:59;;;;;;;7.80;2.22;;;14.20;99.90;;;;;;6268939;22;20380;-89
2023/10/08 03:48:15;;;;;;;3.28;1.10;;;14.10;99.90;;;;;;6267987;22;20674;-90
2023/10/08 03:50:41;;;;;;;4.65;1.20;;;13.90;99.90;;;;;;6270015;22;20690;-90
2023/10/08 03:53:11;;;;;;;5.13;1.20;;;13.90;99.90;;;;;;6268337;22;20372;-90
2023/10/08 03:55:40;;;;;;;3.28;0.80;;;13.90;99.90;;;;;;6269075;22;20372;-89
2023/10/08 03:58:11;;;;;;;4.95;0.95;;;14.00;99.90;;;;;;6269985;22;20364;-89
2023/10/08 04:00:41;;;;;;;4.85;1.15;;;13.90;99.90;;;;;;6268129;22;20685;-90
2023/10/08 04:03:11;;;;;;;6.37;2.17;;;13.90;99.90;;;;;;6270306;22;20376;-89
2023/10/08 04:11:11;;;;;;;2.72;0.70;;;14.40;99.90;;;;;;6269782;22;20412;-89
2023/10/08 04:13:48;;;;;;;3.10;1.05;;;13.90;99.90;;;;;;6241614;22;20368;-90
2023/10/08 04:16:18;;;;;;;3.00;0.60;;;14.00;99.90;;;;;;6244173;22;20375;-90
2023/10/08 04:18:45;;;;;;;2.95;0.70;;;14.00;99.90;;;;;;6237222;22;20430;-89
2023/10/08 04:21:12;;;;;;;4.50;1.10;;;14.00;99.90;;;;;;6243745;22;20371;-89
2023/10/08 04:23:39;;;;;;;3.53;0.60;;;13.90;99.90;;;;;;6243509;22;20455;-90
2023/10/08 04:26:06;;;;;;;4.28;0.90;;;13.90;99.90;;;;;;6267373;22;20531;-89
2023/10/08 04:28:35;;;;;;;3.22;0.75;;;13.90;99.90;;;;;;6244213;22;20368;-89
2023/10/08 04:31:14;;;;;;;3.15;0.45;;;13.90;99.90;;;;;;6264370;22;20870;-89
2023/10/08 04:33:44;;;;;;;3.08;0.43;;;13.90;99.90;;;;;;6243319;22;20367;-90
2023/10/08 04:36:17;;;;;;;3.58;0.60;;;13.90;99.90;;;;;;6241757;22;20447;-90
2023/10/08 04:38:45;;;;;;;4.10;0.60;;;13.90;99.90;;;;;;6269145;22;20447;-91
2023/10/08 04:41:11;;;;;;;3.05;0.45;;;13.90;99.90;;;;;;6269368;22;20375;-90
2023/10/08 04:43:37;;;;;;;4.23;0.67;;;13.90;99.90;;;;;;6240742;22;20371;-89
2023/10/08 04:46:05;;;;;;;4.97;0.63;;;13.90;99.90;;;;;;6242862;22;20407;-90
2023/10/08 04:48:36;;;;;;;4.93;0.65;;;14.20;99.90;;;;;;6240444;22;20368;-89
2023/10/08 04:51:03;;;;;;;5.72;0.60;;;13.90;99.90;;;;;;6243083;22;20368;-89
2023/10/08 04:53:32;;;;;;;4.47;0.50;;;14.20;99.90;;;;;;6240608;22;20364;-90
2023/10/08 04:56:05;;;;;;;3.22;0.60;;;14.30;99.90;;;;;;6268993;22;20373;-90
2023/10/08 04:58:36;;;;;;;4.55;0.60;;;14.10;99.90;;;;;;6268837;22;20411;-89
2023/10/08 05:09:22;;;;;;;4.47;0.73;;;14.10;99.90;;;;;;6268624;22;20382;-90
2023/10/08 05:17:10;;;;;;;8.05;1.30;;;13.90;99.90;;;;;;6268910;22;20379;-90
2023/10/08 05:19:47;;;;;;;6.03;1.10;;;14.30;99.90;;;;;;6262076;22;20383;-90
2023/10/08 05:22:21;;;;;;;10.23;2.03;;;14.10;99.90;;;;;;6242889;22;20853;-91
2023/10/08 05:30:16;;;;;;;6.05;1.13;;;13.80;99.90;;;;;;6269298;22;20364;-90
2023/10/08 05:35:38;;;;;;;10.05;1.38;;;13.70;99.90;;;;;;6267598;22;20380;-91
2023/10/08 05:38:13;;;;;;;8.63;1.50;;;13.70;99.90;;;;;;6243148;22;20368;-91
2023/10/08 05:52:11;;;;;;;9.27;1.23;;;13.60;99.90;;;;;;6268915;22;20407;-90
2023/10/08 06:18:26;;;;;;;7.93;1.77;;;13.50;99.90;;;;;;6268131;22;20792;-91
2023/10/08 06:20:56;;;;;;;8.27;1.90;;;13.50;99.90;;;;;;6242682;22;20376;-91
2023/10/08 06:23:25;;;;;;;8.70;1.90;;;13.90;99.90;;;;;;6266885;22;20357;-90
2023/10/08 06:26:38;;;;;;;6.37;1.40;;;13.50;99.90;;;;;;6268336;22;20376;-90
2023/10/08 06:28:44;;;;;;;10.00;2.35;;;13.50;99.90;;;;;;6253937;22;20900;-91
2023/10/08 06:31:16;;;;;;;8.57;2.08;;;13.60;99.90;;;;;;6242836;22;20368;-91
2023/10/08 06:33:43;;;;;;;6.63;2.03;;;13.60;99.90;;;;;;6268521;22;20819;-89
2023/10/08 06:38:40;;;;;;;8.63;1.95;;;13.70;99.90;;;;;;6268599;22;20557;-91
2023/10/08 06:41:10;;;;;;;10.85;2.13;;;13.70;99.90;;;;;;6267293;22;20690;-92
2023/10/08 06:43:42;;;;;;;7.05;1.70;;;13.90;99.90;;;;;;6267432;22;20391;-91
2023/10/08 06:46:08;;;;;;;6.18;2.00;;;14.10;99.90;;;;;;6241665;22;20442;-91
2023/10/08 06:48:34;;;;;;;12.07;2.80;;;13.80;99.90;;;;;;6242740;22;20740;-91
2023/10/08 06:51:13;;;;;;;10.43;1.80;;;14.20;99.90;;;;;;6268108;22;20772;-91
2023/10/08 06:53:46;;;;;;;8.48;2.35;;;14.20;99.90;;;;;;6241314;22;20855;-92
2023/10/08 06:56:15;;;;;;;6.88;2.17;;;14.00;99.90;;;;;;6269167;22;20364;-91
2023/10/08 06:58:48;;;;;;;8.70;2.00;;;14.10;99.90;;;;;;6240895;22;20856;-92
2023/10/08 07:01:24;;;;;;;7.22;1.88;;;13.90;99.90;;;;;;6267540;22;20854;-91
2023/10/08 07:04:03;;;;;;;8.13;1.95;;;13.90;99.90;;;;;;6240239;22;20392;-91
2023/10/08 07:06:33;;;;;;;6.82;1.90;;;14.50;99.90;;;;;;6241875;22;20424;-92
2023/10/08 07:09:04;;;;;;;9.27;2.67;;;14.10;99.90;;;;;;6243456;22;20396;-90
2023/10/08 07:11:34;;;;;;;10.02;3.25;;;14.10;99.90;;;;;;6241336;22;20400;-91
2023/10/08 07:14:04;;;;;;;10.98;4.35;;;14.30;99.90;;;;;;6243141;22;20369;-91
2023/10/08 07:16:30;;;;;;;9.02;4.00;;;14.10;99.90;;;;;;6240823;22;20372;-90
2023/10/08 07:19:02;;;;;;;13.20;4.78;;;14.10;99.90;;;;;;6268572;22;20373;-92
2023/10/08 07:21:29;;;;;;;11.57;4.15;;;14.10;99.90;;;;;;6242733;22;20843;-91
2023/10/08 07:23:59;;;;;;;9.23;2.95;;;14.20;99.90;;;;;;6242035;22;20364;-91
2023/10/08 07:26:40;;;;;;;9.77;3.95;;;14.20;99.90;;;;;;6242994;22;20409;-91
2023/10/08 07:29:09;;;;;;;9.55;4.47;;;14.20;99.90;;;;;;6241440;22;20780;-91
2023/10/08 07:31:36;;;;;;;9.47;3.03;;;14.50;99.90;;;;;;6268805;22;20446;-91
2023/10/08 07:34:17;;;;;;;10.05;3.42;;;14.20;99.90;;;;;;6267255;22;20364;-90
2023/10/08 07:36:47;;;;;;;8.70;3.25;;;14.20;99.90;;;;;;6242209;22;20469;-91
2023/10/08 07:39:26;;;;;;;9.32;3.13;;;14.70;99.90;;;;;;6236623;22;20360;-91
2023/10/08 07:41:53;;;;;;;9.32;2.75;;;14.30;99.90;;;;;;6266361;22;20434;-91
2023/10/08 07:44:23;;;;;;;7.72;2.00;;;14.50;99.90;;;;;;6243428;22;20418;-92
2023/10/08 07:46:55;;;;;;;8.38;1.85;;;14.70;99.90;;;;;;6241302;22;20391;-92
2023/10/08 07:49:31;;;;;;;10.13;1.95;;;14.50;99.90;;;;;;6245006;22;20400;-91
2023/10/08 07:51:58;;;;;;;8.23;1.45;;;14.40;99.90;;;;;;6244909;22;20765;-91
2023/10/08 07:54:27;;;;;;;7.97;1.30;;;14.40;99.90;;;;;;6243151;22;20427;-93
2023/10/08 07:57:00;;;;;;;8.48;1.10;;;14.10;99.90;;;;;;6245267;22;20410;-92
2023/10/08 07:59:25;;;;;;;8.07;1.30;;;14.30;99.90;;;;;;6242607;22;20364;-91
2023/10/08 08:01:52;;;;;;;10.63;2.13;;;14.70;99.90;;;;;;6271041;22;20399;-92
2023/10/08 08:04:22;;;;;;;12.15;2.40;;;13.70;99.90;;;;;;6243227;22;20449;-92
2023/10/08 08:06:52;;;;;;;9.80;2.00;;;14.00;99.90;;;;;;6244307;22;20965;-91
2023/10/08 08:09:23;;;;;;;9.93;1.55;;;14.00;99.90;;;;;;6270401;22;20455;-90
2023/10/08 08:11:49;;;;;;;10.88;1.50;;;13.70;99.90;;;;;;6268479;22;20456;-91
2023/10/08 08:14:24;;;;;;;7.35;1.45;;;14.20;99.90;;;;;;6245181;22;20756;-91
2023/10/08 08:16:50;;;;;;;9.07;1.60;;;14.20;99.90;;;;;;6242389;22;20434;-92
2023/10/08 08:19:17;;;;;;;10.67;1.57;;;14.20;99.90;;;;;;6270158;22;20456;-92
2023/10/08 08:21:46;;;;;;;9.10;1.75;;;14.50;99.90;;;;;;6243636;22;20360;-92
2023/10/08 08:24:28;;;;;;;9.68;2.10;;;13.60;99.90;;;;;;6247068;22;20372;-92
2023/10/08 08:27:11;;;;;;;12.98;1.58;;;14.10;99.90;;;;;;6275109;22;20536;-91
2023/10/08 08:29:45;;;;;;;9.60;1.70;;;14.20;99.90;;;;;;6273697;22;20454;-91
2023/10/08 08:32:21;;;;;;;10.25;1.70;;;14.50;99.90;;;;;;6275584;22;20362;-92
2023/10/08 08:34:50;;;;;;;9.02;1.40;;;14.30;99.90;;;;;;6248115;22;20355;-92
2023/10/08 08:37:22;;;;;;;7.75;1.45;;;14.30;99.90;;;;;;6248764;22;20374;-91
2023/10/08 08:39:51;;;;;;;9.50;1.07;;;14.40;99.90;;;;;;6249843;22;20366;-91
2023/10/08 08:42:21;;;;;;;8.85;1.45;;;14.50;99.90;;;;;;6272954;22;20363;-92
2023/10/08 08:44:50;;;;;;;8.70;1.65;;;14.60;99.90;;;;;;6250215;22;20363;-93
2023/10/08 08:47:18;;;;;;;8.40;1.80;;;14.60;99.90;;;;;;6246310;22;20420;-92
2023/10/08 08:49:48;;;;;;;12.80;3.13;;;14.60;99.90;;;;;;6248960;22;20363;-92
2023/10/08 08:52:14;;;;;;;10.10;3.47;;;14.70;99.90;;;;;;6248828;22;20390;-92
2023/10/08 08:54:42;;;;;;;11.43;3.15;;;14.80;99.90;;;;;;6274186;22;20394;-92
2023/10/08 08:57:13;;;;;;;10.68;3.80;;;14.90;99.90;;;;;;6250375;22;20363;-92
2023/10/08 08:59:53;;;;;;;9.68;3.55;;;15.00;99.90;;;;;;6273036;22;20409;-93
2023/10/08 09:02:18;;;;;;;10.35;1.90;;;15.00;99.90;;;;;;6250230;22;20359;-92
2023/10/08 09:04:45;;;;;;;12.00;2.57;;;15.00;99.90;;;;;;6273387;22;20715;-93
2023/10/08 09:07:12;;;;;;;10.05;1.40;;;15.20;99.90;;;;;;6249484;22;20429;-90
2023/10/08 09:09:39;;;;;;;7.70;1.13;;;15.30;99.90;;;;;;6248815;22;20446;-92
2023/10/08 09:12:11;;;;;;;7.13;0.87;;;15.40;99.90;;;;;;6248757;22;20390;-92
2023/10/08 09:14:41;;;;;;;9.13;0.80;;;15.40;99.90;;;;;;6275224;22;20704;-92
2023/10/08 09:17:07;;;;;;;7.93;0.90;;;15.30;99.90;;;;;;6247264;22;20371;-92
2023/10/08 09:19:38;;;;;;;6.05;0.80;;;15.40;99.90;;;;;;6249925;22;20456;-93
2023/10/08 09:22:11;;;;;;;5.80;0.85;;;15.50;99.90;;;;;;6272307;22;20375;-92
2023/10/08 09:24:38;;;;;;;5.60;0.80;;;15.60;99.90;;;;;;6301584;22;20731;-91
2023/10/08 09:27:04;;;;;;;5.78;0.75;;;16.10;99.90;;;;;;6248992;22;20720;-91
2023/10/08 09:29:31;;;;;;;6.57;0.65;;;16.10;99.90;;;;;;6247462;22;20373;-91
2023/10/08 09:31:57;;;;;;;7.07;0.70;;;15.80;99.90;;;;;;6248819;22;20397;-91
2023/10/08 09:34:30;;;;;;;7.70;0.50;;;16.30;99.90;;;;;;6271843;22;20464;-91
2023/10/08 09:36:59;;;;;;;7.47;0.70;;;16.40;99.90;;;;;;6274362;22;20371;-91
2023/10/08 09:39:28;;;;;;;6.68;0.63;;;16.40;99.90;;;;;;6246480;22;20420;-89
2023/10/08 09:41:57;;;;;;;5.95;0.77;;;16.50;99.90;;;;;;6273985;22;20370;-90
2023/10/08 09:44:25;;;;;;;9.73;0.80;;;16.10;99.90;;;;;;6274429;22;20362;-91
2023/10/08 09:47:06;;;;;;;6.90;0.60;;;16.00;99.90;;;;;;6246427;22;20382;-92
2023/10/08 09:49:36;;;;;;;6.00;0.60;;;16.00;99.90;;;;;;6273523;22;20412;-92
2023/10/08 09:52:05;;;;;;;7.50;0.70;;;16.40;99.90;;;;;;6271915;22;20468;-91
2023/10/08 09:54:40;;;;;;;6.13;0.60;;;16.10;99.90;;;;;;6273947;22;20362;-92
2023/10/08 09:57:06;;;;;;;6.53;0.60;;;16.60;99.90;;;;;;6272724;22;20363;-90
2023/10/08 09:59:34;;;;;;;7.53;0.60;;;16.40;99.90;;;;;;6247005;22;20432;-91
2023/10/08 10:02:00;;;;;;;7.28;0.68;;;16.70;99.90;;;;;;6248548;22;20385;-92
2023/10/08 10:04:31;;;;;;;9.25;0.75;;;17.00;99.90;;;;;;6246040;22;20734;-89
2023/10/08 10:06:59;;;;;;;5.20;0.50;;;16.90;99.90;;;;;;6273673;22;20395;-91
2023/10/08 10:09:26;;;;;;;6.20;0.50;;;17.00;99.90;;;;;;6245250;22;20788;-89
2023/10/08 10:11:54;;;;;;;9.10;0.63;;;17.20;99.90;;;;;;6272753;22;21132;-90
2023/10/08 10:14:24;;;;;;;7.72;0.80;;;16.90;99.90;;;;;;6271376;22;20384;-90
2023/10/08 10:17:14;;;;;;;9.95;0.90;;;17.50;99.90;;;;;;6246272;22;20452;-89
2023/10/08 10:19:45;;;;;;;6.20;0.80;;;17.60;99.90;;;;;;6273367;22;20378;-90
2023/10/08 10:22:15;;;;;;;10.07;0.90;;;17.30;99.90;;;;;;6271050;22;20432;-90
2023/10/08 10:24:41;;;;;;;7.55;0.70;;;17.50;99.90;;;;;;6272131;22;20400;-90
2023/10/08 10:27:17;;;;;;;9.32;0.98;;;17.60;99.90;;;;;;6270759;22;20398;-89
2023/10/08 10:29:44;;;;;;;6.93;0.70;;;18.00;99.90;;;;;;6271679;22;20363;-89
2023/10/08 10:32:14;;;;;;;6.45;0.50;;;18.10;99.90;;;;;;6247426;22;20406;-90
2023/10/08 10:34:41;;;;;;;7.07;0.70;;;18.20;99.90;;;;;;6270370;22;20461;-88
2023/10/08 10:37:19;;;;;;;7.63;0.60;;;18.80;99.90;;;;;;6272607;22;20450;-88
2023/10/08 10:39:56;;;;;;;6.97;0.77;;;18.30;97.50;;;;;;6244680;22;20393;-89
2023/10/08 10:42:22;;;;;;;5.95;0.70;;;18.70;99.90;;;;;;6272941;22;20374;-93
2023/10/08 10:44:49;;;;;;;6.77;0.40;;;18.60;93.90;;;;;;6247901;22;20417;-92
2023/10/08 10:53:09;;;;;;;5.85;0.70;;;18.60;89.90;;;;;;6272038;22;20366;-93
2023/10/08 10:55:31;;;;;;;7.00;0.85;;;18.30;83.90;;;;;;6269547;22;20370;-93
2023/10/08 10:58:03;;;;;;;6.97;0.70;;;18.30;75.00;;;;;;6247094;22;20370;-91
2023/10/08 11:03:02;;;;;;;5.45;0.60;;;18.00;86.30;;;;;;6273818;22;20420;-92
2023/10/08 11:05:37;;;;;;;8.40;0.70;;;18.10;92.10;;;;;;6245680;22;20669;-90
2023/10/08 11:08:06;;;;;;;6.68;0.40;;;18.30;86.20;;;;;;6248012;22;20386;-91
2023/10/08 11:10:33;;;;;;;6.25;0.60;;;18.10;91.50;;;;;;6246147;22;20758;-91
2023/10/08 11:13:02;;;;;;;9.37;0.70;;;18.60;90.50;;;;;;6271802;22;20390;-89
2023/10/08 11:16:13;;;;;;;6.85;1.00;;;18.40;92.50;;;;;;6273049;22;20367;-89
2023/10/08 11:18:22;;;;;;;6.37;0.80;;;18.20;81.80;;;;;;6254201;22;20373;-90
2023/10/08 11:21:07;;;;;;;6.63;0.77;;;18.40;95.30;;;;;;6247344;22;20363;-93
2023/10/08 11:23:41;;;;;;;6.47;0.60;;;18.20;77.60;;;;;;6246990;22;20895;-89
2023/10/08 11:26:07;;;;;;;10.93;2.05;;;18.10;74.80;;;;;;6248419;22;20387;-90
2023/10/08 11:28:47;;;;;;;5.95;0.60;;;18.20;81.80;;;;;;6249534;22;21088;-89
2023/10/08 11:31:15;;;;;;;4.80;0.63;;;18.40;74.00;;;;;;6247050;22;20363;-91
2023/10/08 11:33:48;;;;;;;6.82;1.08;;;18.20;77.80;;;;;;6249110;22;20741;-90
2023/10/08 11:36:20;;;;;;;6.15;0.50;;;18.50;83.40;;;;;;6247026;22;20363;-93
2023/10/08 11:38:50;;;;;;;7.97;0.93;;;18.40;71.80;;;;;;6249082;22;20665;-90
2023/10/08 11:41:23;;;;;;;7.28;1.15;;;18.40;98.20;;;;;;6248648;22;20362;-91
2023/10/08 11:43:57;;;;;;;5.83;0.40;;;18.40;78.60;;;;;;6247596;22;20363;-92
2023/10/08 11:46:27;;;;;;;6.30;0.80;;;18.20;91.60;;;;;;6249061;22;20388;-91
2023/10/08 11:48:58;;;;;;;6.63;0.75;;;18.60;87.60;;;;;;6246890;22;20394;-91
2023/10/08 11:51:24;;;;;;;8.48;0.70;;;18.50;81.10;;;;;;6249581;22;20355;-91
2023/10/08 11:53:51;;;;;;;6.30;0.60;;;18.60;83.40;;;;;;6248169;22;20419;-94
2023/10/08 11:56:21;;;;;;;8.55;0.75;;;18.60;92.60;;;;;;6274627;22;20398;-90
2023/10/08 11:58:47;;;;;;;7.53;0.90;;;18.30;92.30;;;;;;6274536;22;20831;-90
2023/10/08 12:01:17;;;;;;;5.57;0.60;;;18.40;87.70;;;;;;6247174;22;20367;-90
2023/10/08 12:03:49;;;;;;;6.63;0.75;;;18.10;91.60;;;;;;6249543;22;20359;-92
2023/10/08 12:06:18;;;;;;;5.87;0.40;;;18.30;80.60;;;;;;6272904;22;20809;-91
2023/10/08 12:08:49;;;;;;;6.45;0.60;;;18.00;81.40;;;;;;6248722;22;20475;-90
2023/10/08 12:11:15;;;;;;;6.80;0.60;;;17.80;91.30;;;;;;6247752;22;20370;-91
2023/10/08 12:13:45;;;;;;;6.60;0.70;;;18.10;93.70;;;;;;6274141;22;20394;-91
2023/10/08 12:16:17;;;;;;;7.33;0.70;;;18.00;95.20;;;;;;6274130;22;20366;-89
2023/10/08 12:18:45;;;;;;;4.47;0.68;;;18.10;89.90;;;;;;6246962;22;20358;-88
2023/10/08 12:21:14;;;;;;;6.93;0.90;;;17.90;86.30;;;;;;6248952;22;20761;-91
2023/10/08 12:23:43;;;;;;;6.30;0.70;;;18.20;90.90;;;;;;6271845;22;20373;-89
2023/10/08 12:26:09;;;;;;;7.47;0.82;;;18.10;99.90;;;;;;6243059;22;20404;-90
2023/10/08 12:28:36;;;;;;;5.88;0.50;;;18.30;98.40;;;;;;6267254;22;20453;-88
2023/10/08 12:31:03;;;;;;;6.50;0.70;;;18.60;89.10;;;;;;6242580;22;20459;-91
2023/10/08 12:33:31;;;;;;;5.55;0.45;;;18.80;82.90;;;;;;6243195;22;20447;-90
2023/10/08 12:35:57;;;;;;;5.63;0.43;;;19.20;81.10;;;;;;6241738;22;20371;-91
2023/10/08 12:38:23;;;;;;;5.90;0.67;;;19.30;69.20;;;;;;6243290;22;20364;-90
2023/10/08 12:40:52;;;;;;;6.82;0.57;;;19.30;73.20;;;;;;6240896;22;20365;-89
2023/10/08 12:43:19;;;;;;;6.83;0.57;;;19.20;84.60;;;;;;6268332;22;20371;-90
2023/10/08 12:45:51;;;;;;;4.80;0.35;;;19.00;80.30;;;;;;6266547;22;20854;-88
2023/10/08 12:48:19;;;;;;;4.85;0.50;;;19.50;77.80;;;;;;6242089;22;20379;-88
2023/10/08 12:50:44;;;;;;;5.75;0.50;;;19.80;74.60;;;;;;6268444;22;20697;-89
2023/10/08 12:53:11;;;;;;;5.70;0.50;;;19.70;67.50;;;;;;6240550;22;20408;-90
2023/10/08 12:55:40;;;;;;;3.83;0.40;;;19.70;67.20;;;;;;6268715;22;20368;-90
2023/10/08 12:58:09;;;;;;;5.22;0.57;;;19.70;67.40;;;;;;6266209;22;20408;-89
2023/10/08 13:00:38;;;;;;;5.05;0.50;;;19.90;68.60;;;;;;6242759;22;20376;-89
2023/10/08 13:03:15;;;;;;;5.37;0.70;;;20.40;69.60;;;;;;6266425;22;20376;-89
2023/10/08 13:05:44;;;;;;;6.10;0.45;;;20.00;66.20;;;;;;6241620;22;20364;-90
2023/10/08 13:08:13;;;;;;;8.52;0.70;;;19.80;68.50;;;;;;6268261;22;20438;-89
2023/10/08 13:10:43;;;;;;;5.40;0.50;;;19.90;70.20;;;;;;6265992;22;20365;-89
2023/10/08 13:13:10;;;;;;;5.13;0.43;;;19.50;65.80;;;;;;6242816;22;20375;-90
2023/10/08 13:15:37;;;;;;;8.20;0.90;;;19.50;64.00;;;;;;6265546;22;20399;-90
2023/10/08 13:18:06;;;;;;;6.68;0.60;;;19.20;71.70;;;;;;6268075;22;20991;-89
2023/10/08 13:20:33;;;;;;;4.03;0.47;;;19.10;70.30;;;;;;6266562;22;20481;-88
2023/10/08 13:23:02;;;;;;;4.65;0.57;;;19.00;69.50;;;;;;6266827;22;20376;-89
2023/10/08 13:25:27;;;;;;;4.85;0.45;;;19.00;72.40;;;;;;6267413;22;20516;-89
2023/10/08 13:27:54;;;;;;;6.00;0.40;;;18.90;80.30;;;;;;6265694;22;20462;-89
2023/10/08 13:30:20;;;;;;;3.47;0.43;;;19.00;92.00;;;;;;6242443;22;20459;-90
2023/10/08 13:32:46;;;;;;;6.18;0.70;;;19.10;81.50;;;;;;6265197;22;20414;-89
2023/10/08 13:35:12;;;;;;;5.20;0.45;;;19.00;88.70;;;;;;6242262;22;20364;-89
2023/10/08 13:37:37;;;;;;;6.83;0.73;;;18.60;92.50;;;;;;6266143;22;20378;-89
2023/10/08 13:40:04;;;;;;;7.18;0.50;;;18.60;89.30;;;;;;6242056;22;20376;-89
2023/10/08 13:42:29;;;;;;;4.03;0.40;;;18.70;82.30;;;;;;6240831;22;20400;-90
2023/10/08 13:44:59;;;;;;;5.90;0.50;;;18.60;72.60;;;;;;6240431;22;20759;-89
2023/10/08 13:47:26;;;;;;;5.60;0.68;;;18.60;82.60;;;;;;6241623;22;20407;-89
2023/10/08 13:49:54;;;;;;;6.32;0.50;;;18.60;84.50;;;;;;6265349;22;20697;-88
2023/10/08 13:52:20;;;;;;;5.03;0.40;;;18.80;77.80;;;;;;6267958;22;20364;-89
2023/10/08 13:54:52;;;;;;;7.50;0.40;;;19.00;70.80;;;;;;6265119;22;20368;-89
2023/10/08 13:57:21;;;;;;;6.43;0.40;;;19.00;77.40;;;;;;6242140;22;20364;-90
2023/10/08 13:59:50;;;;;;;5.13;0.40;;;18.40;83.40;;;;;;6267017;22;20364;-88
2023/10/08 14:02:19;;;;;;;3.80;0.40;;;18.80;74.70;;;;;;6265817;22;20372;-91
2023/10/08 14:04:45;;;;;;;5.45;0.63;;;18.70;83.40;;;;;;6242128;22;20368;-91
2023/10/08 14:07:16;;;;;;;6.45;0.85;;;18.20;80.00;;;;;;6239752;22;20514;-90
2023/10/08 14:09:42;;;;;;;4.32;0.70;;;18.20;75.60;;;;;;6267451;22;20444;-89
2023/10/08 14:12:10;;;;;;;5.20;0.60;;;18.10;84.70;;;;;;6265430;22;20732;-88
2023/10/08 14:14:36;;;;;;;6.07;0.73;;;18.70;90.40;;;;;;6241674;22;20360;-87
2023/10/08 14:17:08;;;;;;;4.55;0.60;;;18.20;85.40;;;;;;6266606;22;20384;-89
2023/10/08 14:19:46;;;;;;;4.72;0.43;;;18.40;84.80;;;;;;6265976;22;20392;-90
2023/10/08 14:22:14;;;;;;;4.80;0.65;;;17.70;76.50;;;;;;6267332;22;20387;-90
2023/10/08 14:24:40;;;;;;;3.70;0.57;;;18.30;90.70;;;;;;6265371;22;20398;-90
2023/10/08 14:27:15;;;;;;;6.00;0.50;;;18.00;84.10;;;;;;6241657;22;20950;-89
2023/10/08 14:29:44;;;;;;;5.22;0.52;;;17.90;90.10;;;;;;6264646;22;20368;-89